Time;durP1;ratioP1;P1;durP2;ratioP2;P2;SDS_P1;SDS_P2;PMS_P1;PMS_P2;Temp;Humidity;BMP_temperature;BMP_pressure;BME280_temperature;BME280_humidity;BME280_pressure;Samples;Min_cycle;Max_cycle;Signal;HPM_P1;HPM_P2
2021/10/27 00:01:12;;;;;;;33.50;23.33;;;13.70;99.90;;;;;;4129176;28;20030;-74
2021/10/27 00:03:12;;;;;;;27.63;20.25;;;13.70;99.90;;;;;;4130331;28;20536;-74
2021/10/27 00:05:13;;;;;;;24.77;20.50;;;13.70;99.90;;;;;;4124269;28;20030;-74
2021/10/27 00:07:15;;;;;;;24.52;19.27;;;13.80;99.90;;;;;;4128485;28;20110;-74
2021/10/27 00:09:16;;;;;;;30.38;21.00;;;13.90;99.90;;;;;;4129117;28;20040;-74
2021/10/27 00:11:20;;;;;;;43.58;20.98;;;14.00;99.90;;;;;;4126760;28;20541;-73
2021/10/27 00:13:20;;;;;;;23.85;21.30;;;13.90;99.90;;;;;;4114833;28;20026;-74
2021/10/27 00:15:21;;;;;;;27.00;21.10;;;13.90;99.90;;;;;;4127419;28;20048;-73
2021/10/27 00:17:22;;;;;;;27.52;19.55;;;14.00;99.90;;;;;;4129362;28;20096;-74
2021/10/27 00:19:23;;;;;;;27.45;19.42;;;14.00;99.90;;;;;;4129399;28;20442;-73
2021/10/27 00:21:24;;;;;;;23.48;18.45;;;14.00;99.90;;;;;;4127550;28;20034;-74
2021/10/27 00:23:24;;;;;;;22.83;20.25;;;14.00;99.90;;;;;;4128849;28;20077;-74
2021/10/27 00:25:25;;;;;;;23.83;20.02;;;14.10;99.90;;;;;;4115095;28;20035;-74
2021/10/27 00:27:26;;;;;;;24.63;20.90;;;14.10;99.90;;;;;;4124905;28;20066;-74
2021/10/27 00:29:27;;;;;;;24.73;20.67;;;14.00;99.90;;;;;;4115831;28;20037;-74
2021/10/27 00:31:28;;;;;;;28.50;21.15;;;14.00;99.90;;;;;;4128813;28;20066;-74
2021/10/27 00:33:28;;;;;;;26.33;19.05;;;14.00;99.90;;;;;;4128797;28;20145;-74
2021/10/27 00:35:29;;;;;;;29.67;20.67;;;14.10;99.90;;;;;;4129420;28;20533;-74
2021/10/27 00:37:29;;;;;;;23.70;19.67;;;14.00;99.90;;;;;;4128759;28;20033;-74
2021/10/27 00:39:31;;;;;;;30.42;20.38;;;14.00;99.90;;;;;;4122092;28;20031;-74
2021/10/27 00:41:32;;;;;;;27.30;21.08;;;14.00;99.90;;;;;;4121855;28;20105;-74
2021/10/27 00:43:33;;;;;;;24.40;20.05;;;14.00;99.90;;;;;;4130444;28;20035;-74
2021/10/27 00:45:33;;;;;;;28.25;22.60;;;14.00;99.90;;;;;;4129220;28;20552;-74
2021/10/27 00:47:34;;;;;;;27.85;22.13;;;13.90;99.90;;;;;;4129490;28;20035;-74
2021/10/27 00:49:36;;;;;;;26.45;20.65;;;13.90;99.90;;;;;;4123513;28;20065;-74
2021/10/27 00:51:37;;;;;;;27.70;20.48;;;14.00;99.90;;;;;;4128967;28;20399;-73
2021/10/27 00:53:39;;;;;;;31.75;22.77;;;14.00;99.90;;;;;;4129210;28;20031;-73
2021/10/27 00:55:40;;;;;;;34.72;22.00;;;14.00;99.90;;;;;;4128703;28;20042;-74
2021/10/27 00:57:43;;;;;;;28.00;21.02;;;13.90;99.90;;;;;;4124301;28;20041;-74
2021/10/27 00:59:45;;;;;;;24.33;18.40;;;13.90;99.90;;;;;;4128719;28;20034;-74
2021/10/27 01:01:46;;;;;;;31.88;20.25;;;14.10;99.90;;;;;;4130601;28;20034;-74
2021/10/27 01:03:46;;;;;;;29.75;19.83;;;14.10;99.90;;;;;;4125190;28;20061;-74
2021/10/27 01:05:47;;;;;;;31.27;22.05;;;14.00;99.90;;;;;;4129510;28;20045;-74
2021/10/27 01:07:48;;;;;;;26.95;20.20;;;14.10;99.90;;;;;;4130049;28;20034;-74
2021/10/27 01:09:48;;;;;;;30.20;20.95;;;14.10;99.90;;;;;;4129676;28;20092;-73
2021/10/27 01:11:49;;;;;;;28.98;20.90;;;14.10;99.90;;;;;;4130784;28;20034;-74
2021/10/27 01:13:50;;;;;;;26.52;21.33;;;14.10;99.90;;;;;;4129201;28;20462;-75
2021/10/27 01:15:51;;;;;;;29.05;22.20;;;14.10;99.90;;;;;;4122285;28;20045;-74
2021/10/27 01:17:52;;;;;;;29.10;20.83;;;13.90;99.90;;;;;;4126835;28;20034;-73
2021/10/27 01:19:59;;;;;;;28.83;19.38;;;14.00;99.90;;;;;;4118014;28;20482;-73
2021/10/27 01:21:59;;;;;;;27.63;21.70;;;14.20;99.90;;;;;;4123457;28;20067;-73
2021/10/27 01:24:01;;;;;;;30.13;21.00;;;14.20;99.90;;;;;;4127158;28;20035;-73
2021/10/27 01:26:06;;;;;;;31.67;21.70;;;14.20;99.90;;;;;;4128122;28;20046;-73
2021/10/27 01:28:07;;;;;;;24.95;21.42;;;14.10;99.90;;;;;;4128739;28;20061;-73
2021/10/27 01:30:13;;;;;;;27.90;23.60;;;14.00;99.90;;;;;;4126556;28;20062;-73
2021/10/27 01:32:26;;;;;;;29.42;24.50;;;14.00;99.90;;;;;;4128570;28;20712;-73
2021/10/27 01:34:27;;;;;;;36.75;24.30;;;13.90;99.90;;;;;;4127808;28;20089;-74
2021/10/27 01:36:29;;;;;;;33.50;24.80;;;13.70;99.90;;;;;;4129320;28;20107;-73
2021/10/27 01:38:34;;;;;;;35.60;24.20;;;13.70;99.90;;;;;;4125991;28;20038;-73
2021/10/27 01:40:35;;;;;;;31.70;23.92;;;13.70;99.90;;;;;;4130142;28;20054;-73
2021/10/27 01:42:36;;;;;;;38.22;24.33;;;13.70;99.90;;;;;;4128635;28;20497;-73
2021/10/27 01:44:36;;;;;;;30.00;25.05;;;13.70;99.90;;;;;;4128808;28;20064;-73
2021/10/27 01:46:38;;;;;;;34.47;24.63;;;13.70;99.90;;;;;;4128815;28;20039;-74
2021/10/27 01:48:39;;;;;;;31.73;22.23;;;13.80;99.90;;;;;;4129574;28;20069;-74
2021/10/27 01:50:41;;;;;;;40.45;25.17;;;13.80;99.90;;;;;;4114533;28;20461;-75
2021/10/27 01:52:42;;;;;;;29.90;25.20;;;13.80;99.90;;;;;;4127383;28;20045;-74
2021/10/27 01:54:43;;;;;;;34.58;24.20;;;13.70;99.90;;;;;;4124192;28;20034;-74
2021/10/27 01:56:44;;;;;;;33.78;25.67;;;13.70;99.90;;;;;;4129049;28;20042;-74
2021/10/27 01:58:45;;;;;;;35.65;25.73;;;13.70;99.90;;;;;;4129891;28;20446;-73
2021/10/27 02:00:45;;;;;;;34.80;24.77;;;13.70;99.90;;;;;;4129022;28;20045;-74
2021/10/27 02:02:46;;;;;;;35.08;26.17;;;13.70;99.90;;;;;;4122808;28;20054;-74
2021/10/27 02:04:47;;;;;;;33.00;24.45;;;13.60;99.90;;;;;;4129445;28;20042;-73
2021/10/27 02:06:48;;;;;;;27.75;24.38;;;13.70;99.90;;;;;;4128207;28;20046;-74
2021/10/27 02:08:49;;;;;;;32.25;24.75;;;13.70;99.90;;;;;;4130018;28;20126;-73
2021/10/27 02:10:49;;;;;;;31.05;22.48;;;13.70;99.90;;;;;;4130780;28;20042;-73
2021/10/27 02:12:50;;;;;;;31.75;24.88;;;13.70;99.90;;;;;;4120866;28;20166;-73
2021/10/27 02:14:50;;;;;;;30.77;20.13;;;13.70;99.90;;;;;;4120143;28;20041;-73
2021/10/27 02:16:51;;;;;;;32.53;22.65;;;13.70;99.90;;;;;;4130037;28;20042;-73
2021/10/27 02:18:52;;;;;;;28.17;20.17;;;13.70;99.90;;;;;;4130401;28;20498;-74
2021/10/27 02:20:53;;;;;;;37.83;24.30;;;13.70;99.90;;;;;;4119599;28;20512;-74
2021/10/27 02:22:54;;;;;;;28.50;23.92;;;13.70;99.90;;;;;;4122065;28;20030;-74
2021/10/27 02:24:54;;;;;;;36.47;22.73;;;13.60;99.90;;;;;;4123717;28;20042;-74
2021/10/27 02:26:55;;;;;;;33.13;22.67;;;13.70;99.90;;;;;;4130104;28;20056;-74
2021/10/27 02:28:56;;;;;;;30.90;22.52;;;13.80;99.90;;;;;;4120170;28;20383;-74
2021/10/27 02:30:56;;;;;;;31.02;23.00;;;13.70;99.90;;;;;;4128522;28;20031;-74
2021/10/27 02:32:57;;;;;;;31.80;22.05;;;13.60;99.90;;;;;;4129073;28;20124;-74
2021/10/27 02:34:57;;;;;;;35.90;23.73;;;13.50;99.90;;;;;;4132724;28;20033;-74
2021/10/27 02:36:58;;;;;;;30.77;21.67;;;13.50;99.90;;;;;;4131502;28;20033;-74
2021/10/27 02:38:59;;;;;;;29.90;21.83;;;13.50;99.90;;;;;;4129407;28;20465;-74
2021/10/27 02:41:00;;;;;;;28.17;20.50;;;13.50;99.90;;;;;;4133231;28;20141;-74
2021/10/27 02:43:01;;;;;;;25.63;19.55;;;13.60;99.90;;;;;;4130312;28;20033;-74
2021/10/27 02:45:01;;;;;;;35.53;20.85;;;13.70;99.90;;;;;;4118940;28;20019;-75
2021/10/27 02:47:03;;;;;;;29.27;19.25;;;13.70;99.90;;;;;;4131891;28;20691;-74
2021/10/27 02:49:04;;;;;;;29.17;19.83;;;13.70;99.90;;;;;;4133487;28;20430;-74
2021/10/27 02:51:04;;;;;;;28.55;19.90;;;13.70;99.90;;;;;;4128748;28;20035;-74
2021/10/27 02:53:06;;;;;;;25.98;17.48;;;13.60;99.90;;;;;;4118227;28;20023;-74
2021/10/27 02:55:07;;;;;;;29.48;19.20;;;13.70;99.90;;;;;;4131394;28;20132;-74
2021/10/27 02:57:08;;;;;;;27.45;17.95;;;13.70;99.90;;;;;;4141851;28;20370;-73
2021/10/27 02:59:09;;;;;;;31.55;18.40;;;13.60;99.90;;;;;;4127952;28;20135;-74
2021/10/27 03:01:10;;;;;;;24.65;17.92;;;13.60;99.90;;;;;;4128970;28;20029;-74
2021/10/27 03:03:10;;;;;;;23.10;17.02;;;13.60;99.90;;;;;;4133062;28;20482;-74
2021/10/27 03:05:11;;;;;;;23.92;16.10;;;13.70;99.90;;;;;;4130276;28;20039;-74
2021/10/27 03:07:11;;;;;;;23.77;15.75;;;13.70;99.90;;;;;;4122469;28;20372;-73
2021/10/27 03:09:12;;;;;;;22.88;15.82;;;13.70;99.90;;;;;;4121944;28;20073;-73
2021/10/27 03:11:14;;;;;;;23.45;15.15;;;13.60;99.90;;;;;;4132308;28;20062;-74
2021/10/27 03:13:15;;;;;;;21.23;14.55;;;13.60;99.90;;;;;;4132754;28;20161;-74
2021/10/27 03:15:15;;;;;;;19.85;14.30;;;13.60;99.90;;;;;;4131838;28;20034;-74
2021/10/27 03:17:18;;;;;;;24.50;14.07;;;13.70;99.90;;;;;;4131116;28;20093;-74
2021/10/27 03:19:18;;;;;;;17.17;12.73;;;13.70;99.90;;;;;;4120411;28;20103;-74
2021/10/27 03:21:19;;;;;;;17.95;13.48;;;13.80;99.90;;;;;;4125480;28;20058;-73
2021/10/27 03:23:19;;;;;;;20.58;13.18;;;13.80;99.90;;;;;;4119341;28;20471;-73
2021/10/27 03:25:20;;;;;;;17.90;11.82;;;13.80;99.90;;;;;;4127996;28;20037;-73
2021/10/27 03:27:21;;;;;;;23.80;13.02;;;13.80;99.90;;;;;;4130757;28;20041;-73
2021/10/27 03:29:22;;;;;;;17.70;12.75;;;13.90;99.90;;;;;;4131850;28;20118;-73
2021/10/27 03:31:23;;;;;;;22.00;11.60;;;13.90;99.90;;;;;;4130545;28;20032;-73
2021/10/27 03:33:24;;;;;;;21.85;12.18;;;13.90;99.90;;;;;;4127867;28;20153;-74
2021/10/27 03:35:25;;;;;;;23.33;11.45;;;13.90;99.90;;;;;;4131021;28;20069;-74
2021/10/27 03:37:26;;;;;;;19.52;10.75;;;13.90;99.90;;;;;;4129143;28;20049;-74
2021/10/27 03:39:26;;;;;;;18.25;10.27;;;13.90;99.90;;;;;;4132207;28;20038;-74
2021/10/27 03:41:27;;;;;;;21.95;11.27;;;13.90;99.90;;;;;;4131514;28;20038;-74
2021/10/27 03:43:28;;;;;;;17.38;9.27;;;14.00;99.90;;;;;;4131585;28;20426;-74
2021/10/27 03:45:28;;;;;;;13.70;8.98;;;14.00;99.90;;;;;;4130691;28;20034;-74
2021/10/27 03:47:29;;;;;;;22.63;11.15;;;14.10;99.90;;;;;;4117307;28;20523;-74
2021/10/27 03:49:30;;;;;;;12.20;7.65;;;14.10;99.90;;;;;;4127465;28;20129;-74
2021/10/27 03:51:31;;;;;;;16.83;8.70;;;14.20;99.90;;;;;;4120568;28;20050;-74
2021/10/27 03:53:31;;;;;;;15.50;8.80;;;14.20;99.90;;;;;;4132412;28;20395;-73
2021/10/27 03:55:32;;;;;;;13.13;8.85;;;14.10;99.90;;;;;;4131289;28;20034;-73
2021/10/27 03:57:33;;;;;;;14.50;8.45;;;14.10;99.90;;;;;;4128248;28;20031;-74
2021/10/27 03:59:34;;;;;;;16.50;8.63;;;14.10;99.90;;;;;;4123879;28;20038;-75
2021/10/27 04:01:34;;;;;;;16.77;9.13;;;14.10;99.90;;;;;;4129371;28;20048;-73
2021/10/27 04:03:35;;;;;;;11.23;7.63;;;14.00;99.90;;;;;;4131950;28;20517;-74
2021/10/27 04:05:35;;;;;;;15.10;8.27;;;14.00;99.90;;;;;;4123261;28;20030;-73
2021/10/27 04:07:37;;;;;;;18.13;8.10;;;14.10;99.90;;;;;;4125056;28;20026;-73
2021/10/27 04:09:37;;;;;;;14.65;8.38;;;14.10;99.90;;;;;;4123564;28;20492;-73
2021/10/27 04:11:38;;;;;;;15.55;8.18;;;14.00;99.90;;;;;;4123342;28;20065;-73
2021/10/27 04:13:40;;;;;;;14.77;7.38;;;14.00;99.90;;;;;;4129645;28;20517;-73
2021/10/27 04:15:40;;;;;;;11.48;6.97;;;14.10;99.90;;;;;;4130371;28;20042;-73
2021/10/27 04:17:41;;;;;;;13.18;6.78;;;14.10;99.90;;;;;;4129942;28;20215;-73
2021/10/27 04:19:42;;;;;;;12.18;7.22;;;14.20;99.90;;;;;;4131345;28;20101;-73
2021/10/27 04:21:43;;;;;;;14.88;8.00;;;14.20;99.90;;;;;;4129831;28;20042;-73
2021/10/27 04:23:43;;;;;;;12.05;7.00;;;14.10;99.90;;;;;;4125744;28;20034;-73
2021/10/27 04:25:44;;;;;;;15.65;8.45;;;14.20;99.90;;;;;;4117712;28;20034;-73
2021/10/27 04:27:45;;;;;;;12.45;6.93;;;14.20;99.90;;;;;;4129119;28;20394;-73
2021/10/27 04:29:46;;;;;;;13.48;7.60;;;14.00;99.90;;;;;;4131339;28;20022;-73
2021/10/27 04:31:46;;;;;;;10.27;5.95;;;14.10;99.90;;;;;;4129657;28;20042;-73
2021/10/27 04:33:47;;;;;;;12.43;6.57;;;14.10;99.90;;;;;;4125610;28;20122;-74
2021/10/27 04:35:49;;;;;;;14.15;6.03;;;14.00;99.90;;;;;;4129698;28;21347;-73
2021/10/27 04:37:50;;;;;;;18.50;8.52;;;14.00;99.90;;;;;;4116646;28;20118;-73
2021/10/27 04:39:50;;;;;;;12.98;6.47;;;14.00;99.90;;;;;;4128840;28;20038;-73
2021/10/27 04:41:51;;;;;;;13.02;7.25;;;14.00;99.90;;;;;;4130948;28;20108;-74
2021/10/27 04:43:52;;;;;;;18.10;7.55;;;14.00;99.90;;;;;;4146055;28;20061;-73
2021/10/27 04:45:52;;;;;;;13.63;7.53;;;14.00;99.90;;;;;;4127043;28;20062;-73
2021/10/27 04:47:53;;;;;;;16.52;7.00;;;14.00;99.90;;;;;;4129982;28;20049;-73
2021/10/27 04:49:54;;;;;;;11.80;7.00;;;13.90;99.90;;;;;;4131302;28;20031;-74
2021/10/27 04:51:54;;;;;;;12.07;7.35;;;13.90;99.90;;;;;;4122979;28;20025;-74
2021/10/27 04:53:55;;;;;;;13.52;6.22;;;13.90;99.90;;;;;;4120927;28;20039;-75
2021/10/27 04:55:55;;;;;;;12.40;6.70;;;13.80;99.90;;;;;;4129454;28;20114;-74
2021/10/27 04:57:56;;;;;;;12.52;6.70;;;13.80;99.90;;;;;;4126559;28;20082;-74
2021/10/27 04:59:57;;;;;;;13.32;7.43;;;13.90;99.90;;;;;;4129274;28;20421;-74
2021/10/27 05:01:59;;;;;;;16.25;8.25;;;13.90;99.90;;;;;;4130836;28;20034;-74
2021/10/27 05:04:00;;;;;;;14.68;7.18;;;13.90;99.90;;;;;;4127903;28;20501;-74
2021/10/27 05:06:03;;;;;;;10.80;6.75;;;13.90;99.90;;;;;;4129038;28;20033;-74
2021/10/27 05:08:04;;;;;;;12.98;6.30;;;13.90;99.90;;;;;;4127070;28;20516;-74
2021/10/27 05:10:05;;;;;;;16.35;8.40;;;14.00;99.90;;;;;;4127058;28;20034;-75
2021/10/27 05:12:06;;;;;;;13.32;6.38;;;13.90;99.90;;;;;;4119673;28;20031;-74
2021/10/27 05:14:07;;;;;;;15.60;6.70;;;13.90;99.90;;;;;;4119485;28;20031;-75
2021/10/27 05:16:08;;;;;;;18.15;7.20;;;13.90;99.90;;;;;;4118112;28;20064;-75
2021/10/27 05:18:08;;;;;;;10.88;6.47;;;14.10;99.90;;;;;;4137564;28;20038;-74
2021/10/27 05:20:09;;;;;;;15.77;6.63;;;14.10;99.90;;;;;;4116893;28;20590;-74
2021/10/27 05:22:11;;;;;;;12.10;6.70;;;14.20;99.90;;;;;;4123325;28;20027;-74
2021/10/27 05:24:12;;;;;;;12.95;6.57;;;14.10;99.90;;;;;;4114493;28;20023;-75
2021/10/27 05:26:13;;;;;;;11.43;6.05;;;14.10;99.90;;;;;;4126657;28;20035;-74
2021/10/27 05:28:14;;;;;;;14.13;6.18;;;14.20;99.90;;;;;;4128416;28;20436;-73
2021/10/27 05:30:14;;;;;;;10.25;5.97;;;14.20;99.90;;;;;;4128539;28;20089;-74
2021/10/27 05:32:15;;;;;;;12.20;5.93;;;14.10;99.90;;;;;;4127192;28;20062;-74
2021/10/27 05:34:16;;;;;;;13.10;5.72;;;14.20;99.90;;;;;;4124964;28;20695;-74
2021/10/27 05:36:16;;;;;;;13.15;6.18;;;14.30;99.90;;;;;;4116426;28;20360;-74
2021/10/27 05:38:17;;;;;;;14.32;6.18;;;14.30;99.90;;;;;;4128576;28;20097;-75
2021/10/27 05:40:18;;;;;;;15.95;6.95;;;14.20;99.90;;;;;;4127497;28;20355;-75
2021/10/27 05:42:21;;;;;;;15.90;6.90;;;14.10;99.90;;;;;;4123105;28;20034;-75
2021/10/27 05:44:21;;;;;;;;;;;14.10;99.90;;;;;;4120381;28;20547;-75
2021/10/27 05:46:22;;;;;;;9.88;6.10;;;14.10;99.90;;;;;;4119539;28;19910;-75
2021/10/27 05:48:27;;;;;;;21.00;7.13;;;14.20;99.90;;;;;;4135751;28;20034;-75
2021/10/27 05:50:43;;;;;;;12.82;5.95;;;14.20;99.90;;;;;;4128316;28;20034;-72
2021/10/27 05:57:07;;;;;;;11.07;5.38;;;14.10;99.90;;;;;;4128023;28;20038;-74
2021/10/27 05:59:07;;;;;;;12.07;6.18;;;14.00;99.90;;;;;;4128615;28;20097;-75
2021/10/27 06:01:08;;;;;;;15.10;6.78;;;13.90;99.90;;;;;;4127327;28;20030;-74
2021/10/27 06:03:09;;;;;;;11.93;6.78;;;13.90;99.90;;;;;;4126960;28;20536;-74
2021/10/27 06:05:10;;;;;;;14.07;7.15;;;13.90;99.90;;;;;;4141235;28;20386;-73
2021/10/27 06:07:11;;;;;;;13.07;6.15;;;13.90;99.90;;;;;;4123204;28;20033;-75
2021/10/27 06:09:16;;;;;;;8.75;5.90;;;13.90;99.90;;;;;;4123610;28;20026;-75
2021/10/27 06:11:16;;;;;;;12.57;6.32;;;13.90;99.90;;;;;;4128668;28;20015;-75
2021/10/27 06:13:17;;;;;;;9.85;6.07;;;14.00;99.90;;;;;;4129946;28;20621;-75
2021/10/27 06:15:21;;;;;;;12.05;6.05;;;14.00;99.90;;;;;;4142495;28;20021;-75
2021/10/27 06:17:21;;;;;;;11.05;6.28;;;14.00;99.90;;;;;;4126513;28;20030;-74
2021/10/27 06:19:22;;;;;;;14.20;7.93;;;14.00;99.90;;;;;;4131779;28;20118;-74
2021/10/27 06:21:23;;;;;;;14.32;6.32;;;14.00;99.90;;;;;;4132178;28;20109;-74
2021/10/27 06:23:24;;;;;;;11.95;6.45;;;14.00;99.90;;;;;;4131870;28;20441;-74
2021/10/27 06:25:26;;;;;;;16.38;6.78;;;14.00;99.90;;;;;;4131584;28;20742;-74
2021/10/27 06:27:27;;;;;;;15.95;7.95;;;13.90;99.90;;;;;;4130447;28;20041;-74
2021/10/27 06:29:31;;;;;;;12.30;7.00;;;13.90;99.90;;;;;;4130057;28;20030;-73
2021/10/27 06:31:46;;;;;;;13.63;7.10;;;14.00;99.90;;;;;;4129740;28;20393;-73
2021/10/27 06:33:55;;;;;;;11.93;6.70;;;14.00;99.90;;;;;;4127474;28;20183;-74
2021/10/27 06:36:05;;;;;;;15.00;6.80;;;14.10;99.90;;;;;;4129704;28;20031;-74
2021/10/27 06:38:19;;;;;;;15.52;7.18;;;14.10;99.90;;;;;;4132725;28;20097;-75
2021/10/27 06:47:17;;;;;;;17.38;7.25;;;13.90;99.90;;;;;;4130497;28;20528;-75
2021/10/27 06:49:18;;;;;;;19.55;9.00;;;13.90;99.90;;;;;;4132596;28;20034;-75
2021/10/27 06:51:19;;;;;;;14.52;6.85;;;13.90;99.90;;;;;;4130565;28;20556;-74
2021/10/27 06:53:20;;;;;;;14.50;7.65;;;14.00;99.90;;;;;;4123244;28;20045;-74
2021/10/27 06:55:20;;;;;;;14.88;7.15;;;14.00;99.90;;;;;;4130534;28;20034;-75
2021/10/27 06:57:25;;;;;;;12.05;6.28;;;13.90;99.90;;;;;;4130131;28;20042;-75
2021/10/27 07:15:00;;;;;;;13.15;7.03;;;14.00;99.90;;;;;;4131296;28;20542;-74
2021/10/27 07:15:20;;;;;;;11.68;6.05;;;13.90;99.90;;;;;;4129780;28;20042;-74
2021/10/27 07:17:21;;;;;;;11.27;6.90;;;13.90;99.90;;;;;;4129113;28;21923;-74
2021/10/27 07:19:21;;;;;;;13.70;7.20;;;13.90;99.90;;;;;;4132266;28;20088;-74
2021/10/27 07:21:22;;;;;;;12.20;7.25;;;13.90;99.90;;;;;;4131422;28;20034;-74
2021/10/27 07:23:23;;;;;;;20.85;9.00;;;13.90;99.90;;;;;;4127583;28;20034;-75
2021/10/27 07:25:24;;;;;;;12.68;7.35;;;13.90;99.90;;;;;;4132219;28;20121;-74
2021/10/27 07:27:25;;;;;;;18.63;7.53;;;14.00;99.90;;;;;;4130687;28;20023;-74
2021/10/27 07:29:26;;;;;;;10.10;6.80;;;14.00;99.90;;;;;;4131838;28;20097;-74
2021/10/27 07:31:27;;;;;;;14.65;7.32;;;14.00;99.90;;;;;;4130434;28;20030;-74
2021/10/27 07:33:29;;;;;;;15.27;7.75;;;14.00;99.90;;;;;;4130455;28;20035;-74
2021/10/27 07:35:35;;;;;;;18.15;8.15;;;13.90;99.90;;;;;;4146815;28;20485;-74
2021/10/27 07:40:32;;;;;;;19.73;8.13;;;14.10;99.90;;;;;;4130791;28;20081;-74
2021/10/27 07:42:25;;;;;;;13.30;8.10;;;14.10;99.90;;;;;;4128261;28;20360;-74
2021/10/27 07:44:26;;;;;;;11.82;7.78;;;14.20;99.90;;;;;;4130082;28;20084;-74
2021/10/27 07:46:27;;;;;;;13.73;8.30;;;14.20;99.90;;;;;;4133227;28;20108;-75
2021/10/27 07:48:29;;;;;;;16.20;9.45;;;14.20;99.90;;;;;;4131172;28;20026;-74
2021/10/27 07:50:31;;;;;;;14.65;9.52;;;14.30;99.90;;;;;;4127710;28;20045;-75
2021/10/27 07:52:32;;;;;;;13.90;9.07;;;14.30;99.90;;;;;;4128319;28;20555;-75
2021/10/27 07:54:34;;;;;;;17.73;9.27;;;14.40;99.90;;;;;;4124727;28;20058;-75
2021/10/27 07:56:34;;;;;;;15.48;10.68;;;14.40;99.90;;;;;;4129625;28;20418;-74
2021/10/27 07:58:36;;;;;;;14.18;10.13;;;14.40;99.90;;;;;;4130028;28;20030;-74
2021/10/27 08:00:38;;;;;;;21.63;10.27;;;14.40;99.90;;;;;;4128269;28;20144;-74
2021/10/27 08:02:39;;;;;;;18.27;11.00;;;14.40;99.90;;;;;;4129988;28;20030;-74
2021/10/27 08:04:40;;;;;;;14.10;10.15;;;14.40;99.90;;;;;;4130354;28;20104;-74
2021/10/27 08:06:45;;;;;;;20.65;9.95;;;14.40;99.90;;;;;;4146441;28;20116;-74
2021/10/27 08:08:45;;;;;;;16.83;10.63;;;14.50;99.90;;;;;;4130977;28;20056;-74
2021/10/27 08:10:46;;;;;;;20.08;9.88;;;14.40;99.90;;;;;;4130711;28;20034;-74
2021/10/27 08:12:47;;;;;;;15.73;11.18;;;14.40;99.90;;;;;;4130184;28;20556;-73
2021/10/27 08:14:48;;;;;;;14.77;10.43;;;14.50;99.90;;;;;;4131099;28;20046;-73
2021/10/27 08:16:49;;;;;;;18.42;10.90;;;14.40;99.90;;;;;;4131435;28;20477;-73
2021/10/27 08:18:50;;;;;;;14.55;10.43;;;14.40;99.90;;;;;;4130784;28;20437;-73
2021/10/27 08:20:51;;;;;;;16.95;10.10;;;14.30;99.90;;;;;;4129716;28;20379;-73
2021/10/27 08:22:57;;;;;;;15.63;10.20;;;14.30;99.90;;;;;;4129350;28;20118;-74
2021/10/27 08:24:58;;;;;;;14.80;10.43;;;14.30;99.90;;;;;;4126695;28;20038;-74
2021/10/27 08:27:08;;;;;;;15.57;10.90;;;14.20;99.90;;;;;;4127470;28;20026;-74
2021/10/27 08:29:13;;;;;;;15.07;9.90;;;14.20;99.90;;;;;;4129617;28;20038;-73
2021/10/27 08:31:31;;;;;;;16.20;10.00;;;14.30;99.90;;;;;;4124721;28;20048;-74
2021/10/27 08:35:41;;;;;;;21.15;9.82;;;14.30;99.90;;;;;;4125428;28;20470;-74
2021/10/27 08:37:46;;;;;;;16.73;9.50;;;14.50;99.90;;;;;;4122510;28;20035;-74
2021/10/27 08:39:46;;;;;;;19.85;10.40;;;14.50;99.90;;;;;;4129623;28;20530;-73
2021/10/27 08:41:47;;;;;;;18.38;9.98;;;14.60;99.90;;;;;;4130631;28;20041;-74
2021/10/27 08:43:48;;;;;;;15.50;10.75;;;14.60;99.90;;;;;;4127993;28;20030;-74
2021/10/27 08:45:49;;;;;;;15.25;10.50;;;14.60;99.90;;;;;;4130183;28;20066;-74
2021/10/27 08:47:52;;;;;;;13.07;10.40;;;14.60;99.90;;;;;;4130482;28;20042;-74
2021/10/27 08:49:55;;;;;;;13.90;10.27;;;14.70;99.90;;;;;;4124065;28;20026;-74
2021/10/27 08:52:00;;;;;;;20.15;11.30;;;14.70;99.90;;;;;;4128331;28;20042;-74
2021/10/27 08:54:00;;;;;;;18.98;10.02;;;14.70;99.90;;;;;;4130113;28;20095;-74
2021/10/27 08:56:04;;;;;;;15.65;11.02;;;14.70;99.90;;;;;;4129631;28;20454;-74
2021/10/27 08:58:05;;;;;;;16.45;11.00;;;14.80;99.90;;;;;;4129719;28;20023;-73
2021/10/27 09:00:19;;;;;;;14.40;10.02;;;14.90;99.90;;;;;;4130345;28;20555;-73
2021/10/27 09:07:15;;;;;;;14.35;11.23;;;14.80;99.90;;;;;;4129600;28;20055;-75
2021/10/27 09:34:03;;;;;;;15.25;10.35;;;15.50;99.90;;;;;;4127893;28;20041;-74
2021/10/27 10:06:15;;;;;;;15.95;10.45;;;17.50;99.90;;;;;;4125128;28;20037;-71
2021/10/27 10:08:16;;;;;;;15.35;10.02;;;17.70;99.90;;;;;;4123185;28;20023;-74
2021/10/27 10:10:17;;;;;;;13.38;10.07;;;17.90;99.90;;;;;;4128463;28;20057;-73
2021/10/27 10:12:21;;;;;;;11.95;10.38;;;18.00;99.90;;;;;;4128399;28;20042;-74
2021/10/27 10:14:22;;;;;;;18.88;10.63;;;18.30;99.90;;;;;;4127945;28;20725;-74
2021/10/27 10:16:23;;;;;;;14.48;10.20;;;18.60;99.90;;;;;;4128160;28;20490;-74
2021/10/27 10:18:24;;;;;;;14.63;10.38;;;18.60;99.90;;;;;;4125299;28;20031;-75
2021/10/27 10:20:25;;;;;;;10.00;8.63;;;18.30;99.90;;;;;;4133597;28;20373;-74
2021/10/27 10:22:38;;;;;;;14.25;10.18;;;18.40;99.90;;;;;;4128041;28;20034;-74
2021/10/27 10:24:39;;;;;;;11.32;8.50;;;18.30;99.90;;;;;;4128727;28;20391;-74
2021/10/27 10:26:41;;;;;;;15.35;10.02;;;18.20;99.90;;;;;;4128356;28;20045;-74
2021/10/27 10:28:43;;;;;;;18.08;9.27;;;18.10;99.90;;;;;;4128769;28;20034;-75
2021/10/27 10:30:51;;;;;;;12.02;9.35;;;18.20;99.90;;;;;;4128102;28;20113;-74
2021/10/27 10:33:09;;;;;;;13.30;8.48;;;18.20;99.90;;;;;;4127859;28;20497;-74
2021/10/27 10:35:17;;;;;;;11.43;8.32;;;18.40;99.90;;;;;;4126589;28;20402;-74
2021/10/27 10:37:43;;;;;;;11.02;8.93;;;18.60;99.90;;;;;;4127097;28;20497;-74
2021/10/27 10:39:49;;;;;;;9.20;7.72;;;18.50;99.90;;;;;;4123876;28;20023;-73
2021/10/27 10:42:01;;;;;;;11.30;7.57;;;18.50;99.90;;;;;;4126610;28;20061;-74
2021/10/27 10:56:59;;;;;;;11.20;8.35;;;17.60;99.90;;;;;;4126765;28;20136;-74
2021/10/27 11:24:14;;;;;;;15.55;8.05;;;16.80;99.90;;;;;;4129378;28;20080;-71
2021/10/27 11:26:37;;;;;;;10.95;8.68;;;16.70;99.90;;;;;;4130452;28;20459;-74
2021/10/27 11:38:16;;;;;;;8.88;7.55;;;16.60;99.90;;;;;;4128491;28;20477;-74
2021/10/27 11:40:36;;;;;;;11.05;8.18;;;16.50;99.90;;;;;;4126528;28;20108;-74
2021/10/27 11:47:00;;;;;;;12.63;8.70;;;16.70;99.90;;;;;;4125988;28;20106;-73
2021/10/27 11:49:10;;;;;;;11.27;8.25;;;16.60;99.90;;;;;;4116070;28;20051;-72
2021/10/27 11:51:15;;;;;;;10.60;7.75;;;16.60;99.90;;;;;;4129418;28;20371;-72
2021/10/27 11:53:23;;;;;;;11.85;8.13;;;16.60;99.90;;;;;;4131179;28;20026;-74
2021/10/27 11:55:30;;;;;;;18.27;8.88;;;16.60;99.90;;;;;;4130949;28;20058;-74
2021/10/27 11:57:31;;;;;;;12.95;8.73;;;16.60;99.90;;;;;;4131574;28;20046;-73
2021/10/27 11:59:45;;;;;;;10.63;8.73;;;16.60;99.90;;;;;;4130003;28;20138;-72
2021/10/27 12:01:53;;;;;;;14.13;9.15;;;16.60;99.90;;;;;;4130429;28;20129;-72
2021/10/27 12:03:58;;;;;;;11.93;9.50;;;16.60;99.90;;;;;;4128885;28;20041;-73
2021/10/27 12:06:06;;;;;;;15.57;9.43;;;16.50;99.90;;;;;;4130757;28;20031;-74
2021/10/27 12:10:30;;;;;;;14.50;8.77;;;16.60;99.90;;;;;;4129938;28;20046;-74
2021/10/27 12:17:50;;;;;;;10.88;9.23;;;16.70;99.90;;;;;;4131303;28;20037;-74
2021/10/27 12:19:38;;;;;;;10.95;8.90;;;16.70;99.90;;;;;;4130402;28;20030;-72
2021/10/27 12:21:46;;;;;;;12.45;10.10;;;16.50;99.90;;;;;;4128921;28;20026;-74
2021/10/27 12:23:51;;;;;;;11.88;10.02;;;16.40;99.90;;;;;;4131647;28;20727;-73
2021/10/27 12:26:11;;;;;;;11.85;8.75;;;16.60;99.90;;;;;;4130363;28;20034;-73
2021/10/27 12:28:41;;;;;;;11.18;8.50;;;16.90;99.90;;;;;;4130327;28;20054;-73
2021/10/27 12:30:44;;;;;;;13.85;9.57;;;17.40;99.90;;;;;;4129079;28;20076;-73
2021/10/27 12:32:53;;;;;;;14.10;10.20;;;17.50;99.90;;;;;;4130252;28;20113;-74
2021/10/27 12:34:59;;;;;;;13.77;9.57;;;17.90;99.90;;;;;;4129184;28;20042;-73
2021/10/27 12:37:17;;;;;;;12.35;8.18;;;18.20;99.90;;;;;;4127001;28;20039;-74
2021/10/27 12:39:26;;;;;;;11.68;9.70;;;18.40;99.90;;;;;;4116326;28;20034;-74
2021/10/27 12:41:27;;;;;;;13.30;9.75;;;18.30;99.90;;;;;;4128967;28;20038;-74
2021/10/27 12:43:39;;;;;;;13.57;8.10;;;18.30;99.90;;;;;;4125845;28;20069;-74
2021/10/27 12:45:50;;;;;;;11.25;8.23;;;18.60;99.90;;;;;;4130221;28;20069;-74
2021/10/27 12:48:02;;;;;;;10.68;6.47;;;19.20;99.90;;;;;;4129037;28;20038;-74
2021/10/27 12:50:15;;;;;;;10.50;7.97;;;20.00;99.90;;;;;;4128031;28;20054;-74
2021/10/27 12:52:29;;;;;;;11.45;7.25;;;20.70;99.90;;;;;;4129818;28;20045;-73
2021/10/27 12:54:30;;;;;;;9.98;7.45;;;21.20;99.90;;;;;;4130615;28;20038;-73
2021/10/27 12:56:34;;;;;;;14.68;8.95;;;21.00;99.90;;;;;;4129565;28;20056;-73